Russellville, Alabama
Current Conditions -  °F | °C
As of 9:56 AM on Tuesday 21 Oct 2014 (Local Time) from K1M4 Reporting Station
Clear Clear  
Wind Chill: 62°   Ceiling: Unl
Heat Index: 62°   Visibility: 10mi
Dew Point: 56°   Wind: 5mph
Humidity: 81%   Direction: 340°NNW
Pressure: 30.11"   Gusts: NA
Location:  34.51°N, 87.73°W
Report Text: K1M4 211456Z AUTO 34004KT 10SM CLR 17/13 A3011 RMK AO2 51013 T01660133 SLP207
Loading
Personal Weather Stations






























Interactive Weather Map
Tropical Storm Tracking
New forecast layout! Learn more

10-Day Weather Forecast

Advertisements
Track Severe Weather on mobile